Latest Weather Observations for Coober Pedy Airport

IDS60801

Issued at 1:01 pm CST Saturday 24 June 2017 (issued every 30 minutes, with the page automatically refreshed every 10 minutes)

About weather observations | Map of weather stations | Latest weather observations for SA | Other Formats
Station Details ID: 016090 Name: COOBER PEDY AIRPORT Lat: -29.03 Lon: 134.72 Height: 225.0 m
Data from the previous 72 hours. | See also: Recent months at Coober Pedy Airport
Date/Time
CST
Temp
°C
App
Temp
°C
Dew
Point
°C
Rel
Hum
%
Delta-T
°C
Wind Press
QNH
hPa
Press
MSL
hPa
Rain since
9am
mm
Dir  Spd
km/h
Gust
km/h
Spd
kts
Gust
kts
24/01:00pm 19.6 15.0 6.4 42 6.7 SSW 20 24 11 13 1019.7 1019.7 0.0
24/12:30pm 18.5 16.4 9.6 56 4.7 SSW 11 15 6 8 1020.2 1020.2 0.0
24/12:00pm 17.2 14.3 9.6 61 4.0 SSW 15 19 8 10 1020.7 1020.7 0.0
24/11:30am 16.7 12.9 9.1 61 4.0 SSW 19 22 10 12 1020.7 1020.7 0.0
24/11:00am 16.0 12.2 9.7 66 3.3 SSW 20 24 11 13 1020.9 1020.9 0.0
24/10:30am 15.3 12.8 9.7 69 2.9 SSE 13 15 7 8 1020.9 1020.9 0.0
24/10:00am 15.1 12.0 9.0 67 3.2 S 15 17 8 9 1021.1 1021.1 0.0
24/09:30am 15.3 12.2 8.8 65 3.3 SSW 15 22 8 12 1021.0 1021.0 0.0
24/09:00am 14.9 12.4 8.2 64 3.4 SSW 11 13 6 7 1020.7 1020.7 0.0
24/08:30am 14.7 12.5 7.7 63 3.5 SSW 9 13 5 7 1020.2 1020.2 0.0
24/08:00am 13.9 11.2 7.4 65 3.2 SSW 11 15 6 8 1020.0 1020.0 0.0
24/07:30am 13.7 10.6 7.2 65 3.2 SW 13 15 7 8 1020.1 1020.1 0.0
24/07:00am 13.8 10.7 7.3 65 3.2 SW 13 13 7 7 1019.5 1019.5 0.0
24/06:30am 13.8 10.3 7.1 64 3.3 SSW 15 17 8 9 1019.0 1019.0 0.0
24/06:00am 14.2 10.7 7.0 62 3.5 S 15 17 8 9 1018.7 1018.7 0.0
24/05:30am 14.4 11.2 7.0 61 3.6 SSW 13 15 7 8 1018.4 1018.4 0.0
24/05:00am 14.6 10.5 6.4 58 4.0 SW 17 19 9 10 1018.6 1018.6 0.0
24/04:30am 14.4 10.2 5.5 55 4.2 SW 17 20 9 11 1018.9 1018.9 0.0
24/04:00am 14.6 10.6 5.1 53 4.5 SW 15 17 8 9 1018.9 1018.9 0.0
24/03:30am 14.6 10.5 4.6 51 4.7 SW 15 17 8 9 1019.0 1019.0 0.0
24/03:00am 14.5 10.9 4.8 52 4.6 SSW 13 13 7 7 1018.8 1018.8 0.0
24/02:30am 14.2 10.5 4.2 51 4.6 SW 13 17 7 9 1018.3 1018.3 0.0
24/02:00am 14.6 11.1 3.7 48 5.0 SSE 11 11 6 6 1018.3 1018.3 0.0
24/01:30am 15.4 12.4 3.9 46 5.3 SSE 9 11 5 6 1018.7 1018.7 0.0
24/01:00am 15.4 12.1 4.8 49 5.0 SSE 11 13 6 7 1018.7 1018.7 0.0
24/12:30am 15.8 12.1 4.5 47 5.3 SSE 13 13 7 7 1018.7 1018.7 0.0
24/12:00am 15.3 11.5 3.8 46 5.3 SSE 13 15 7 8 1018.8 1018.8 0.0
 
Date/Time
CST
Temp
°C
App
Temp
°C
Dew
Point
°C
Rel
Hum
%
Delta-T
°C
Wind Press
QNH
hPa
Press
MSL
hPa
Rain since
9am
mm
Dir  Spd
km/h
Gust
km/h
Spd
kts
Gust
kts
23/11:30pm 14.3 9.9 2.9 46 5.1 SSW 15 17 8 9 1019.1 1019.1 0.0
23/11:00pm 15.0 10.6 2.9 44 5.5 SSW 15 17 8 9 1019.2 1019.2 0.0
23/10:30pm 16.0 12.4 2.8 41 6.0 SSW 11 13 6 7 1019.3 1019.3 0.0
23/10:00pm 16.1 12.1 2.9 41 6.1 SW 13 13 7 7 1019.5 1019.5 0.0
23/09:30pm 17.7 14.5 3.2 38 6.8 S 9 11 5 6 1019.0 1019.0 0.0
23/09:00pm 17.8 14.2 2.9 37 6.9 SSW 11 15 6 8 1019.1 1019.1 0.0
23/08:30pm 18.6 14.5 2.4 34 7.5 S 13 15 7 8 1019.3 1019.3 0.0
23/08:00pm 19.4 14.6 2.7 33 7.8 SSW 17 20 9 11 1019.1 1019.1 0.0
23/07:30pm 20.1 14.7 2.5 31 8.3 SSW 20 24 11 13 1018.8 1018.8 0.0
23/07:00pm 20.5 15.1 2.3 30 8.5 SW 20 26 11 14 1018.5 1018.5 0.0
23/06:30pm 20.9 16.0 2.2 29 8.8 SW 17 20 9 11 1018.1 1018.1 0.0
23/06:00pm 21.1 16.9 1.9 28 9.0 SW 13 15 7 8 1017.7 1017.6 0.0
23/05:30pm 21.9 18.5 2.1 27 9.3 SW 9 11 5 6 1017.2 1017.2 0.0
23/05:00pm 23.0 18.2 2.5 26 9.8 WSW 17 20 9 11 1017.4 1017.3 0.0
23/04:30pm 23.8 18.5 2.0 24 10.4 WSW 19 28 10 15 1017.2 1017.2 0.0
23/04:00pm 25.1 19.6 1.9 22 11.2 W 20 30 11 16 1017.1 1017.1 0.0
23/03:30pm 24.6 19.1 2.1 23 10.8 W 20 32 11 17 1017.2 1017.2 0.0
23/03:00pm 24.7 20.2 2.2 23 10.9 WNW 15 22 8 12 1017.0 1017.0 0.0
23/02:30pm 24.5 19.7 2.6 24 10.6 W 17 28 9 15 1017.8 1017.7 0.0
23/02:00pm 24.3 17.8 2.5 24 10.6 W 26 32 14 17 1018.2 1018.2 0.0
23/01:30pm 24.6 17.7 2.7 24 10.7 WNW 28 35 15 19 1018.5 1018.5 0.0
23/01:00pm 23.8 17.7 2.6 25 10.3 NW 24 32 13 17 1019.0 1019.0 0.0
23/12:30pm 23.2 17.1 2.7 26 9.9 NNW 24 30 13 16 1019.6 1019.6 0.0
23/12:00pm 21.8 15.3 2.5 28 9.2 N 26 32 14 17 1020.1 1020.1 0.0
23/11:30am 20.6 13.8 2.9 31 8.4 N 28 33 15 18 1020.4 1020.4 0.0
23/11:00am 19.8 12.2 2.6 32 8.1 N 32 39 17 21 1020.7 1020.7 0.0
23/10:30am 18.9 12.0 2.3 33 7.7 N 28 37 15 20 1020.9 1020.9 0.0
23/10:00am 16.5 10.3 2.2 38 6.5 N 24 28 13 15 1021.2 1021.2 0.0
23/09:30am 15.2 9.4 2.1 41 5.8 NNE 22 28 12 15 1020.9 1020.9 0.0
23/09:00am 14.0 8.7 2.0 44 5.3 NNE 19 24 10 13 1020.4 1020.4 0.0
23/08:30am 13.0 7.7 1.7 46 4.9 NNE 19 20 10 11 1020.3 1020.3 0.0
23/08:00am 13.0 7.5 1.7 46 4.9 NNE 20 24 11 13 1020.0 1020.0 0.0
23/07:30am 12.5 7.1 1.5 47 4.7 NNE 19 20 10 11 1020.0 1020.0 0.0
23/07:00am 12.3 7.0 1.6 48 4.6 NNE 19 20 10 11 1019.7 1019.7 0.0
23/06:30am 12.3 7.0 1.6 48 4.6 NNE 19 20 10 11 1019.2 1019.2 0.0
23/06:00am 12.2 6.8 1.5 48 4.6 NNE 19 20 10 11 1019.2 1019.2 0.0
23/05:30am 12.6 7.6 1.6 47 4.8 NNE 17 20 9 11 1019.4 1019.4 0.0
23/05:00am 12.6 7.3 1.6 47 4.8 NNE 19 20 10 11 1019.2 1019.2 0.0
23/04:30am 13.1 7.2 1.8 46 4.9 NNE 22 24 12 13 1019.2 1019.2 0.0
23/04:00am 13.4 8.1 1.7 45 5.1 NNE 19 22 10 12 1019.6 1019.6 0.0
23/03:30am 13.4 7.5 1.7 45 5.1 NNE 22 26 12 14 1019.6 1019.6 0.0
23/03:00am 13.6 8.3 1.9 45 5.1 NNE 19 20 10 11 1019.9 1019.9 0.0
23/02:30am 13.7 8.4 1.7 44 5.2 NNE 19 20 10 11 1020.0 1020.0 0.0
23/02:00am 14.2 8.9 1.8 43 5.5 NNE 19 22 10 12 1020.0 1020.0 0.0
23/01:30am 14.6 9.3 1.8 42 5.7 N 19 24 10 13 1020.0 1020.0 0.0
23/01:00am 14.8 9.5 1.7 41 5.8 NNE 19 24 10 13 1020.1 1020.1 0.0
23/12:30am 14.9 9.9 1.1 39 6.0 N 17 20 9 11 1020.3 1020.3 0.0
23/12:00am 15.1 9.5 1.3 39 6.1 NNE 20 26 11 14 1020.0 1020.0 0.0
 
Date/Time
CST
Temp
°C
App
Temp
°C
Dew
Point
°C
Rel
Hum
%
Delta-T
°C
Wind Press
QNH
hPa
Press
MSL
hPa
Rain since
9am
mm
Dir  Spd
km/h
Gust
km/h
Spd
kts
Gust
kts
22/11:30pm 15.4 10.0 1.5 39 6.1 NE 19 22 10 12 1020.6 1020.6 0.0
22/11:00pm 15.0 10.7 1.2 39 6.1 NNE 13 15 7 8 1021.2 1021.2 0.0
22/10:30pm 15.3 10.7 1.8 40 6.0 NE 15 17 8 9 1020.9 1020.9 0.0
22/10:00pm 15.1 10.1 1.6 40 6.0 NNE 17 19 9 10 1021.2 1021.2 0.0
22/09:30pm 15.5 10.9 1.6 39 6.2 NE 15 17 8 9 1021.2 1021.2 0.0
22/09:00pm 15.7 11.1 1.8 39 6.2 NE 15 17 8 9 1021.4 1021.4 0.0
22/08:30pm 14.7 10.8 1.3 40 5.9 NE 11 13 6 7 1021.2 1021.2 0.0
22/08:00pm 15.6 10.7 2.1 40 6.1 NE 17 17 9 9 1020.7 1020.7 0.0
22/07:30pm 15.8 10.8 1.2 37 6.4 NE 17 17 9 9 1020.6 1020.6 0.0
22/07:00pm 16.7 12.0 1.2 35 6.9 NE 15 17 8 9 1020.5 1020.5 0.0
22/06:30pm 17.4 13.2 1.4 34 7.2 NE 13 13 7 7 1020.4 1020.4 0.0
22/06:00pm 18.6 14.8 1.6 32 7.7 NNE 11 13 6 7 1020.2 1020.2 0.0
22/05:30pm 21.0 17.2 1.8 28 8.9 N 11 13 6 7 1020.1 1020.1 0.0
22/05:00pm 22.0 17.9 2.2 27 9.4 N 13 19 7 10 1020.1 1020.1 0.0
22/04:30pm 22.5 18.0 2.1 26 9.7 NNE 15 20 8 11 1020.0 1020.0 0.0
22/04:00pm 23.0 19.0 3.0 27 9.7 N 13 19 7 10 1020.1 1020.1 0.0
22/03:30pm 22.9 18.9 2.9 27 9.6 NNW 13 24 7 13 1020.4 1020.4 0.0
22/03:00pm 22.5 18.2 3.1 28 9.4 N 15 24 8 13 1020.4 1020.4 0.0
22/02:30pm 21.8 16.6 2.5 28 9.2 N 19 28 10 15 1020.9 1020.9 0.0
22/02:00pm 21.9 16.7 2.6 28 9.2 N 19 28 10 15 1021.3 1021.3 0.0
22/01:30pm 21.2 15.4 2.5 29 8.8 NNE 22 32 12 17 1021.7 1021.8 0.0
22/01:00pm 21.2 15.1 2.5 29 8.9 N 24 30 13 16 1022.3 1022.3 0.0
22/12:30pm 20.5 14.3 2.3 30 8.5 N 24 32 13 17 1023.0 1023.0 0.0
22/12:00pm 20.0 13.1 2.4 31 8.2 NNE 28 35 15 19 1023.4 1023.4 0.0
22/11:30am 18.3 11.7 1.8 33 7.5 NNE 26 33 14 18 1023.9 1023.9 0.0
22/11:00am 17.4 11.1 1.8 35 7.1 NNE 24 32 13 17 1024.3 1024.3 0.0
22/10:30am 15.9 8.8 1.2 37 6.5 NNE 28 33 15 18 1024.5 1024.5 0.0
22/10:00am 14.7 8.0 1.3 40 5.9 NE 26 32 14 17 1024.7 1024.7 0.0
22/09:30am 13.2 6.1 1.2 44 5.2 NNE 28 32 15 17 1024.6 1024.6 0.0
22/09:00am 13.0 6.7 1.7 46 4.9 NNE 24 30 13 16 1024.3 1024.3 0.0
22/08:30am 12.6 7.1 1.9 48 4.6 NE 20 24 11 13 1024.3 1024.3 0.0
22/08:00am 12.0 6.5 1.9 50 4.4 NE 20 24 11 13 1024.1 1024.1 0.0
22/07:30am 11.3 6.0 2.1 53 4.0 NE 19 20 10 11 1023.8 1023.8 0.0
22/07:00am 11.5 6.6 2.0 52 4.1 NE 17 20 9 11 1023.6 1023.6 0.0
22/06:30am 12.0 7.5 2.2 51 4.3 ENE 15 17 8 9 1023.4 1023.4 0.0
22/06:00am 12.1 7.6 2.0 50 4.4 ENE 15 19 8 10 1023.4 1023.4 0.0
22/05:30am 12.6 8.1 2.2 49 4.5 NE 15 19 8 10 1023.6 1023.6 0.0
22/05:00am 13.0 7.6 2.3 48 4.7 NE 20 24 11 13 1022.9 1022.9 0.0
22/04:30am 13.0 7.8 2.3 48 4.7 ENE 19 24 10 13 1022.9 1022.9 0.0
22/04:00am 13.3 8.8 2.2 47 4.9 ENE 15 19 8 10 1023.2 1023.2 0.0
22/03:30am 13.8 8.6 2.4 46 5.1 ENE 19 22 10 12 1022.9 1022.9 0.0
22/03:00am 13.7 8.8 2.3 46 5.0 ENE 17 19 9 10 1023.5 1023.5 0.0
22/02:30am 13.9 8.1 2.2 45 5.2 ENE 22 26 12 14 1023.2 1023.2 0.0
22/02:00am 13.5 8.0 1.8 45 5.1 ENE 20 24 11 13 1023.4 1023.4 0.0
22/01:30am 13.7 8.2 1.7 44 5.2 ENE 20 24 11 13 1023.4 1023.4 0.0
22/01:00am 13.4 8.0 1.4 44 5.2 E 19 24 10 13 1023.5 1023.5 0.0
22/12:30am 13.3 7.9 1.3 44 5.2 ENE 19 22 10 12 1023.8 1023.8 0.0
22/12:00am 13.1 8.4 1.1 44 5.1 ENE 15 19 8 10 1024.5 1024.5 0.0
 
Date/Time
CST
Temp
°C
App
Temp
°C
Dew
Point
°C
Rel
Hum
%
Delta-T
°C
Wind Press
QNH
hPa
Press
MSL
hPa
Rain since
9am
mm
Dir  Spd
km/h
Gust
km/h
Spd
kts
Gust
kts
21/11:30pm 13.2 8.1 0.9 43 5.2 ENE 17 20 9 11 1024.5 1024.5 0.0
21/11:00pm 13.5 8.1 1.2 43 5.3 ENE 19 22 10 12 1024.2 1024.2 0.0
21/10:30pm 13.7 8.6 1.0 42 5.5 ENE 17 19 9 10 1024.8 1024.8 0.0
21/10:00pm 13.5 8.7 0.5 41 5.5 ENE 15 17 8 9 1024.7 1024.7 0.0
21/09:30pm 13.9 9.1 0.5 40 5.7 ENE 15 17 8 9 1024.7 1024.7 0.0
21/09:00pm 14.0 8.9 0.6 40 5.7 ENE 17 20 9 11 1024.5 1024.5 0.0
21/08:30pm 13.2 8.4 -0.1 40 5.5 ENE 15 17 8 9 1024.7 1024.7 0.0
21/08:00pm 14.5 10.1 0.4 38 6.1 ENE 13 15 7 8 1024.7 1024.7 0.0
21/07:30pm 15.2 10.8 0.2 36 6.4 E 13 19 7 10 1024.0 1024.0 0.0
21/07:00pm 15.8 11.4 0.4 35 6.7 E 13 15 7 8 1023.9 1023.9 0.0
21/06:30pm 15.7 11.3 0.3 35 6.6 E 13 15 7 8 1023.9 1023.9 0.0
21/06:00pm 17.1 15.2 0.7 33 7.2 CALM 0 0 0 0 1023.7 1023.7 0.0
21/05:30pm 18.1 15.1 0.7 31 7.7 E 6 9 3 5 1023.5 1023.5 0.0
21/05:00pm 18.8 14.5 0.9 30 8.1 ENE 13 15 7 8 1023.4 1023.4 0.0
21/04:30pm 19.0 15.1 1.1 30 8.1 E 11 15 6 8 1023.6 1023.6 0.0
21/04:00pm 19.4 15.5 0.9 29 8.4 ENE 11 15 6 8 1023.6 1023.6 0.0
21/03:30pm 19.3 15.8 1.3 30 8.2 E 9 13 5 7 1023.7 1023.7 0.0
21/03:00pm 18.7 14.4 1.2 31 7.9 ENE 13 19 7 10 1023.8 1023.8 0.0
21/02:30pm 19.0 15.1 1.1 30 8.1 NE 11 17 6 9 1024.2 1024.2 0.0
21/02:00pm 18.8 13.8 1.3 31 7.9 ENE 17 24 9 13 1024.3 1024.3 0.0
21/01:30pm 19.2 14.6 1.7 31 8.0 NE 15 20 8 11 1025.0 1025.0 0.0

Other Formats:

Comma delimited format used in spreadsheet applications
http://www.bom.gov.au/fwo/IDS60801/IDS60801.95458.axf

JavaScript Object Notation format (JSON) in row-major order
http://www.bom.gov.au/fwo/IDS60801/IDS60801.95458.json